Share

Penfield, PA

Clearfield-Lawrence (KFIG) Elev 1516 ft | 41.05 °N, 78.41 °W | Change Station

Current weather conditions updated 33 minutes ago

Clear
Clear
63 °F
Feels Like 63 °F
N
10
Wind Variable Wind from NE
Sunrise 6:28 AM
Sunset 7:58 PM
Moon Waning Gibbous

Tomorrow is forecast to be nearly the same temperature as today.

Pressure 30.28 in
Visibility 10.0 miles
Clouds Clear
Dew Point 17 °F
Humidity 17%
Rainfall 0.00 in
Snow Depth Not available.
UV 6 out of 16
Pollen 10.80 out of 12
Air Quality Not available.
Flu Activity Local Activity
METAR KFIG 191954Z AUTO 04009KT 10SM CLR 17/M08 A3027 RMK AO2 SLP254 T01721083

More Conditions Fewer Conditions

Pressure 30.28 in
Visibility 10.0 miles
Clouds Clear
Dew Point 17 °F
Humidity 17%
Rainfall 0.00 in
Snow Depth Not available.
UV 6 out of 16
Pollen 10.80 out of 12
Air Quality Not available.
Flu Activity Local Activity
METAR KFIG 191954Z AUTO 04009KT 10SM CLR 17/M08 A3027 RMK AO2 SLP254 T01721083

More Conditions Fewer Conditions

10-Day Weather Forecast

Almanac

Astronomy

Apr. 19, 2014 Rise Set
Actual Time 6:28 AM EDT 7:58 PM EDT
Civil Twilight 5:59 AM EDT 8:27 PM EDT
Nautical Twilight 5:25 AM EDT 9:02 PM EDT
Astronomical Twilight 4:48 AM EDT 9:39 PM EDT
Moon No Moon Rise 9:44 AM EDT
Length of Visible Light 14h 27m
Length of Day
13h 29m
Tomorrow will be 2m 34s longer.
Waning Gibbous, 77% of the Moon is Illuminated
Today
Waning Gibbous
Apr 22
Last Quarter
Apr 29
New
May 6
First Quarter
May 14
Full

Today's Extremes

State Highs State Lows

Community

  • Skirting the Horizon
    Skirting the Horizon
  • Piriapolis
    Piriapolis
  • A Glorious Morning
    A Glorious Morning
  • Tender Rays Of Hope
    Tender Rays Of Hope
  • Bleeding Hearts
    Bleeding Hearts

WunderPhotos

Upload Photos

1,702,886 photos uploaded!

WunderBlogs® & News

Nearby

Snow Depth

Station Depth Elevation
No new snow has been reported.

Coastal Water Temperatures

Place Temperature
No Stations Reporting

Earthquake Activity

City Distance Mag. Time & Date
No recent earthquake activity has been reported nearby.
Minimum magnitude displayed is 2.5.

Nearby Weather Stations

Station Location Temp. Dew Point Humidity Wind Precip. Elev Updated Type
RAWS KENNEDY PRESERVE PA, Penfield, PA 60 °F 16 °F 18% NNE  at  6 mph 0.00 in / hr 2121 ft 3:08 PM EDT MADIS
Holly Terrace, Falls Creek, PA 62.8 °F 31 °F 30% NW  at  10.0 mph 0.00 in / hr 1473 ft 4:27 PM EDT Rapid Fire
Emerald Estates, Saint Marys, PA 59.9 °F 23 °F 24% NW  at  1.0 mph 0.00 in / hr 1870 ft 4:27 PM EDT Rapid Fire

Show More Stations Show Fewer Stations

What do you think?

We're not finished. Please let us know what you like, what you don't like, and what you are still missing.